Time;durP1;ratioP1;P1;durP2;ratioP2;P2;SDS_P1;SDS_P2;PMS_P1;PMS_P2;Temp;Humidity;BMP_temperature;BMP_pressure;BME280_temperature;BME280_humidity;BME280_pressure;Samples;Min_cycle;Max_cycle;Signal;HPM_P1;HPM_P2
2023/05/26 00:01:23;;;;;;;12.23;6.20;;;;;;;15.82;61.65;101979.81;5022732;28;20054;-63
2023/05/26 00:03:50;;;;;;;13.90;5.78;;;;;;;15.80;61.56;101973.75;5008465;28;20042;-64
2023/05/26 00:06:21;;;;;;;13.38;6.03;;;;;;;15.69;62.31;101969.63;5005773;28;20041;-63
2023/05/26 00:08:48;;;;;;;13.70;6.22;;;;;;;15.78;62.01;101970.47;5016306;28;20379;-63
2023/05/26 00:11:16;;;;;;;17.92;6.20;;;;;;;15.88;61.50;101975.78;5015730;28;20069;-63
2023/05/26 00:13:43;;;;;;;14.60;6.00;;;;;;;15.81;61.82;101972.66;5015430;28;20057;-63
2023/05/26 00:16:11;;;;;;;16.58;7.05;;;;;;;15.76;62.02;101970.81;5025491;28;20058;-64
2023/05/26 00:18:38;;;;;;;21.88;6.07;;;;;;;15.41;62.67;101982.00;5003571;28;20050;-64
2023/05/26 00:21:06;;;;;;;14.70;5.80;;;;;;;15.31;63.58;101971.09;5014577;28;20505;-63
2023/05/26 00:23:33;;;;;;;13.05;6.70;;;;;;;15.15;64.17;101970.66;5014259;28;20066;-63
2023/05/26 00:26:01;;;;;;;13.13;6.55;;;;;;;15.22;64.31;101975.78;5015184;28;20053;-64
2023/05/26 00:28:28;;;;;;;14.77;6.47;;;;;;;15.07;64.66;101965.84;5014939;28;20069;-63
2023/05/26 00:30:55;;;;;;;17.75;7.18;;;;;;;15.10;64.70;101970.75;5015210;28;20675;-64
2023/05/26 00:33:23;;;;;;;15.98;6.72;;;;;;;15.14;64.90;101960.69;5007052;28;20410;-64
2023/05/26 00:35:50;;;;;;;15.82;6.57;;;;;;;15.18;64.56;101963.66;5007227;28;20050;-64
2023/05/26 00:38:17;;;;;;;18.65;7.20;;;;;;;15.22;64.91;101973.81;5015534;28;20056;-64
2023/05/26 00:40:44;;;;;;;18.60;7.28;;;;;;;15.09;65.26;101969.13;4992084;28;20061;-64
2023/05/26 00:43:12;;;;;;;11.60;6.28;;;;;;;15.16;64.94;101960.38;5015211;28;20057;-64
2023/05/26 00:45:40;;;;;;;19.75;7.13;;;;;;;15.03;65.60;101958.47;5015407;28;20053;-64
2023/05/26 00:48:07;;;;;;;15.90;7.40;;;;;;;15.06;65.41;101958.69;5014719;28;20058;-64
2023/05/26 00:50:35;;;;;;;15.57;7.35;;;;;;;15.05;65.61;101950.63;5013266;28;20056;-64
2023/05/26 00:53:03;;;;;;;18.40;7.45;;;;;;;15.30;64.92;101956.41;4996655;28;20533;-63
2023/05/26 00:55:31;;;;;;;16.85;6.88;;;;;;;15.35;64.75;101949.91;5014553;28;20050;-64
2023/05/26 00:57:59;;;;;;;17.98;8.18;;;;;;;14.83;66.64;101954.22;4997526;28;20053;-65
2023/05/26 01:00:26;;;;;;;17.08;7.90;;;;;;;14.46;68.45;101963.59;5013711;28;20050;-64
2023/05/26 01:02:57;;;;;;;18.08;7.47;;;;;;;14.69;68.26;101956.19;4997023;28;20046;-64
2023/05/26 01:05:25;;;;;;;19.10;8.18;;;;;;;14.62;68.11;101947.47;4997345;28;20053;-63
2023/05/26 01:07:53;;;;;;;18.00;9.02;;;;;;;14.50;68.88;101949.94;5014011;28;20069;-64
2023/05/26 01:10:21;;;;;;;21.00;9.05;;;;;;;14.44;68.99;101956.72;5011671;28;20061;-63
2023/05/26 01:12:58;;;;;;;19.15;8.35;;;;;;;14.68;68.31;101938.72;5010600;28;20405;-63
2023/05/26 01:15:30;;;;;;;18.00;8.32;;;;;;;14.47;69.18;101953.34;4972754;28;20045;-62
2023/05/26 01:18:04;;;;;;;20.13;8.65;;;;;;;14.57;68.72;101945.59;4981627;28;20050;-64
2023/05/26 01:20:45;;;;;;;17.35;8.52;;;;;;;14.62;68.64;101955.78;4996590;28;20057;-64
2023/05/26 01:23:38;;;;;;;19.67;8.88;;;;;;;14.70;68.27;101954.25;4995533;28;20064;-67
2023/05/26 01:26:17;;;;;;;19.20;9.25;;;;;;;14.49;69.53;101954.66;5012692;28;20061;-63
2023/05/26 01:28:46;;;;;;;20.93;9.40;;;;;;;14.73;68.84;101953.63;4997327;28;20046;-64
2023/05/26 01:31:14;;;;;;;15.57;8.75;;;;;;;14.95;67.89;101954.47;4997295;28;20057;-64
2023/05/26 01:33:41;;;;;;;17.65;9.20;;;;;;;14.90;67.72;101956.53;5014391;28;20053;-64
2023/05/26 01:36:10;;;;;;;18.73;9.75;;;;;;;14.60;68.46;101955.28;5014197;28;20046;-62
2023/05/26 01:38:39;;;;;;;21.13;9.85;;;;;;;14.65;68.92;101957.94;5012755;28;20041;-65
2023/05/26 01:41:26;;;;;;;18.30;9.18;;;;;;;14.68;68.89;101967.59;4994581;28;20089;-64
2023/05/26 01:44:03;;;;;;;22.30;10.45;;;;;;;14.17;70.69;101960.31;4977110;28;20050;-64
2023/05/26 01:46:50;;;;;;;18.58;9.93;;;;;;;14.18;71.48;101978.56;5001396;28;20045;-63
2023/05/26 01:49:20;;;;;;;23.23;10.40;;;;;;;14.17;71.37;101967.78;5014083;28;20050;-64
2023/05/26 01:51:51;;;;;;;20.13;9.30;;;;;;;14.12;71.56;101968.69;5014080;28;20054;-64
2023/05/26 01:54:21;;;;;;;24.08;10.63;;;;;;;13.92;72.62;101968.25;5014192;28;20057;-64
2023/05/26 01:56:49;;;;;;;;;;;;;;;13.66;73.82;101961.53;5013673;28;20054;-64
2023/05/26 01:59:19;;;;;;;19.17;10.38;;;;;;;13.78;73.88;101970.19;4995763;28;19928;-62
2023/05/26 02:01:47;;;;;;;26.35;11.30;;;;;;;13.87;73.63;101974.72;4995388;28;20053;-63
2023/05/26 02:04:15;;;;;;;23.52;10.63;;;;;;;13.93;73.25;101978.22;4979447;28;20061;-64
2023/05/26 02:06:42;;;;;;;21.75;11.10;;;;;;;14.00;72.82;101975.88;5013548;28;20421;-63
2023/05/26 02:09:09;;;;;;;22.98;11.48;;;;;;;13.94;73.21;101979.88;4996177;28;20689;-63
2023/05/26 02:11:39;;;;;;;;;;;;;;;13.77;73.75;101982.41;5016705;28;20049;-63
2023/05/26 02:14:07;;;;;;;25.42;10.68;;;;;;;13.96;73.05;101977.63;5035565;28;19925;-64
2023/05/26 02:16:34;;;;;;;24.05;11.52;;;;;;;13.61;74.56;101973.53;5013468;28;20058;-63
2023/05/26 02:19:02;;;;;;;25.20;12.48;;;;;;;13.56;74.89;101977.19;5015530;28;20046;-64
2023/05/26 02:21:35;;;;;;;26.08;11.63;;;;;;;13.66;74.90;101972.63;5032452;28;20133;-64
2023/05/26 02:24:03;;;;;;;24.42;10.95;;;;;;;13.78;74.43;101976.56;4997515;28;20061;-64
2023/05/26 02:26:30;;;;;;;34.00;11.50;;;;;;;13.76;74.81;101972.44;5028070;28;20057;-63
2023/05/26 02:28:58;;;;;;;27.52;11.07;;;;;;;14.20;74.06;101968.00;5016789;28;20057;-64
2023/05/26 02:31:25;;;;;;;27.88;11.30;;;;;;;13.88;73.60;101981.09;5014932;28;20057;-64
2023/05/26 02:33:54;;;;;;;26.95;12.07;;;;;;;13.60;74.98;101982.16;4982348;28;20065;-63
2023/05/26 02:36:21;;;;;;;24.92;11.07;;;;;;;13.38;75.87;101978.06;5000386;28;20046;-65
2023/05/26 02:38:48;;;;;;;29.38;11.35;;;;;;;13.13;77.00;101975.69;5016585;28;20061;-63
2023/05/26 02:41:16;;;;;;;27.98;11.77;;;;;;;13.20;77.18;101975.31;5016485;28;20060;-64
2023/05/26 02:43:43;;;;;;;24.42;11.50;;;;;;;13.16;77.28;101965.97;4999858;28;20042;-63
2023/05/26 02:46:13;;;;;;;26.90;11.52;;;;;;;13.14;77.33;101971.00;5014890;28;20402;-64
2023/05/26 02:48:41;;;;;;;27.35;10.20;;;;;;;13.40;77.16;101972.22;4997836;28;20058;-64
2023/05/26 02:51:09;;;;;;;29.42;10.63;;;;;;;13.24;76.49;101985.50;5012169;28;20060;-64
2023/05/26 02:53:38;;;;;;;33.25;11.18;;;;;;;13.24;77.45;101973.59;5015657;28;20066;-67
2023/05/26 02:56:06;;;;;;;28.23;10.88;;;;;;;13.24;77.21;101973.59;5017331;28;20050;-65
2023/05/26 02:58:33;;;;;;;27.75;11.10;;;;;;;13.08;78.20;101967.47;5017445;28;20061;-63
2023/05/26 03:01:01;;;;;;;25.92;10.77;;;;;;;13.10;77.54;101975.47;5015456;28;20046;-63
2023/05/26 03:03:28;;;;;;;35.72;12.13;;;;;;;13.14;77.54;101971.00;5015402;28;20045;-64
2023/05/26 03:05:58;;;;;;;28.10;10.48;;;;;;;13.07;77.97;101965.84;4998557;28;20050;-63
2023/05/26 03:08:26;;;;;;;27.92;10.48;;;;;;;13.10;77.75;101975.47;5008373;28;20061;-64
2023/05/26 03:10:54;;;;;;;30.35;11.23;;;;;;;13.02;78.37;101974.19;5015533;28;20054;-63
2023/05/26 03:13:40;;;;;;;30.58;10.55;;;;;;;13.12;77.28;101964.94;4998160;28;20061;-64
2023/05/26 03:16:08;;;;;;;27.40;10.65;;;;;;;13.03;78.07;101962.03;5015818;28;20452;-64
2023/05/26 03:18:37;;;;;;;30.05;9.65;;;;;;;13.05;78.17;101967.25;5012583;28;20062;-64
2023/05/26 03:21:06;;;;;;;35.42;11.32;;;;;;;13.02;77.65;101967.84;4998838;28;20046;-63
2023/05/26 03:23:54;;;;;;;28.20;10.60;;;;;;;12.93;78.48;101964.91;4998936;28;20080;-64
2023/05/26 03:26:22;;;;;;;30.50;10.57;;;;;;;13.07;78.01;101965.00;4999395;28;20500;-64
2023/05/26 03:28:49;;;;;;;33.72;11.43;;;;;;;13.39;76.57;101965.88;5030255;28;20049;-63
2023/05/26 03:31:17;;;;;;;30.75;10.63;;;;;;;13.28;76.61;101961.63;5016062;28;20050;-65
2023/05/26 03:33:45;;;;;;;32.83;10.43;;;;;;;13.32;76.62;101962.66;5015240;28;20068;-64
2023/05/26 03:36:13;;;;;;;33.30;11.60;;;;;;;13.47;75.99;101959.66;5006825;28;20053;-64
2023/05/26 03:38:41;;;;;;;37.78;11.63;;;;;;;13.29;76.08;101966.03;4999213;28;20612;-62
2023/05/26 03:41:08;;;;;;;35.38;10.18;;;;;;;13.08;77.59;101964.72;4997673;28;20038;-64
2023/05/26 03:43:47;;;;;;;31.70;10.02;;;;;;;13.31;76.71;101960.19;4998625;28;20261;-64
2023/05/26 03:46:15;;;;;;;29.65;10.38;;;;;;;12.88;78.24;101967.75;4997760;28;20058;-62
2023/05/26 03:48:42;;;;;;;25.45;9.35;;;;;;;12.79;78.96;101965.94;4998282;28;20057;-64
2023/05/26 03:51:09;;;;;;;29.77;10.63;;;;;;;13.09;78.02;101973.84;4998070;28;20057;-63
2023/05/26 03:53:37;;;;;;;30.90;9.98;;;;;;;12.92;78.22;101960.47;5014952;28;20054;-64
2023/05/26 03:56:05;;;;;;;33.30;11.27;;;;;;;13.06;77.92;101957.81;4981904;28;20053;-64
2023/05/26 03:58:33;;;;;;;36.22;10.63;;;;;;;13.09;77.56;101957.25;5014875;28;20054;-63
2023/05/26 04:01:00;;;;;;;30.95;10.00;;;;;;;12.83;78.40;101956.75;5031099;28;20054;-64
2023/05/26 04:03:27;;;;;;;29.17;9.20;;;;;;;12.85;78.53;101950.94;5014369;28;20409;-64
2023/05/26 04:05:57;;;;;;;33.45;9.90;;;;;;;12.74;78.58;101949.44;5014460;28;20054;-65
2023/05/26 04:08:24;;;;;;;33.05;10.18;;;;;;;12.69;79.00;101955.88;4998518;28;20069;-64
2023/05/26 04:10:52;;;;;;;31.75;10.27;;;;;;;12.67;79.18;101963.63;4989728;28;20037;-63
2023/05/26 04:13:19;;;;;;;28.05;9.25;;;;;;;12.64;79.13;101963.41;5014448;28;20045;-63
2023/05/26 04:15:48;;;;;;;34.05;10.57;;;;;;;12.47;79.95;101963.88;5015494;28;20053;-62
2023/05/26 04:18:15;;;;;;;35.17;10.32;;;;;;;12.45;80.22;101968.88;5016178;28;20058;-63
2023/05/26 04:20:43;;;;;;;31.08;10.02;;;;;;;12.45;80.45;101974.41;5015577;28;20056;-63
2023/05/26 04:23:10;;;;;;;29.05;10.43;;;;;;;12.59;79.86;101971.75;5013650;28;20053;-65
2023/05/26 04:25:40;;;;;;;37.72;10.18;;;;;;;12.78;79.03;101967.06;5010758;28;20049;-64
2023/05/26 04:28:31;;;;;;;34.47;10.95;;;;;;;12.76;78.86;101970.09;4986358;28;20069;-65
2023/05/26 04:31:20;;;;;;;34.00;10.95;;;;;;;12.57;79.28;101971.22;5014954;28;20041;-63
2023/05/26 04:34:11;;;;;;;35.38;10.40;;;;;;;12.60;78.74;101971.47;4997009;28;20061;-65
2023/05/26 04:36:48;;;;;;;34.97;10.73;;;;;;;12.73;78.95;101970.72;5030251;28;20622;-64
2023/05/26 04:39:16;;;;;;;33.25;10.27;;;;;;;12.50;79.02;101968.81;5014515;28;20068;-64
2023/05/26 04:41:44;;;;;;;47.25;11.25;;;;;;;12.31;79.74;101979.00;4999132;28;20562;-65
2023/05/26 04:44:12;;;;;;;29.85;9.52;;;;;;;12.41;80.17;101974.16;4997658;28;20050;-64
2023/05/26 04:46:39;;;;;;;32.72;10.48;;;;;;;12.53;80.01;101979.28;5015059;28;20064;-65
2023/05/26 04:49:07;;;;;;;37.10;10.52;;;;;;;12.75;78.94;101968.47;5030020;28;20570;-66
2023/05/26 04:51:35;;;;;;;42.03;9.85;;;;;;;13.06;77.44;101977.19;4997517;28;20413;-64
2023/05/26 04:54:03;;;;;;;34.55;9.68;;;;;;;13.07;76.59;101987.13;4996642;28;20060;-63
2023/05/26 04:56:30;;;;;;;40.83;10.10;;;;;;;12.48;78.75;101993.19;4997110;28;20394;-64
2023/05/26 04:58:59;;;;;;;26.67;9.18;;;;;;;12.38;80.05;101993.28;5013347;28;20060;-64
2023/05/26 05:01:27;;;;;;;35.63;10.25;;;;;;;12.32;80.26;101994.47;5012094;28;20046;-64
2023/05/26 05:04:09;;;;;;;36.80;11.27;;;;;;;12.35;80.03;101993.88;5009317;28;20046;-64
2023/05/26 05:06:45;;;;;;;27.88;9.52;;;;;;;12.29;80.63;102000.59;5029618;28;20054;-65
2023/05/26 05:09:12;;;;;;;33.08;10.48;;;;;;;12.34;80.36;102001.31;5009682;28;20062;-65
2023/05/26 05:11:40;;;;;;;35.33;10.40;;;;;;;12.19;80.93;101993.22;4995507;28;20046;-64
2023/05/26 05:14:08;;;;;;;38.45;10.45;;;;;;;12.05;81.73;102002.47;5010281;28;20422;-64
2023/05/26 05:16:35;;;;;;;33.20;11.05;;;;;;;12.27;81.73;102011.09;4994248;28;20074;-64
2023/05/26 05:19:02;;;;;;;35.22;10.55;;;;;;;12.50;79.45;102010.25;4993898;28;20054;-64
2023/05/26 05:21:33;;;;;;;;;;;;;;;12.45;79.93;102013.09;4994392;28;20046;-63
2023/05/26 05:24:00;;;;;;;32.85;10.20;;;;;;;12.56;79.53;102016.56;4981230;28;19929;-63
2023/05/26 05:26:28;;;;;;;35.55;11.02;;;;;;;12.68;78.80;102016.94;4992532;28;20051;-64
2023/05/26 05:28:56;;;;;;;34.42;9.93;;;;;;;12.73;79.27;102022.41;5001585;28;20042;-64
2023/05/26 05:31:31;;;;;;;31.80;10.82;;;;;;;12.27;79.88;102033.19;5010395;28;20046;-64
2023/05/26 05:33:58;;;;;;;36.08;9.95;;;;;;;12.35;80.10;102027.03;4991491;28;20046;-63
2023/05/26 05:36:26;;;;;;;34.42;11.35;;;;;;;12.37;80.14;102027.56;4974227;28;20051;-63
2023/05/26 05:38:53;;;;;;;36.05;10.82;;;;;;;12.45;80.01;102030.50;4995102;28;20055;-64
2023/05/26 05:41:21;;;;;;;39.40;10.63;;;;;;;12.61;79.21;102033.91;5009913;28;20532;-64
2023/05/26 05:43:49;;;;;;;34.53;10.07;;;;;;;12.97;78.05;102025.97;4993155;28;20528;-64
2023/05/26 05:46:17;;;;;;;39.30;10.15;;;;;;;12.91;76.74;102033.53;4992727;28;20054;-64
2023/05/26 05:49:04;;;;;;;37.72;10.27;;;;;;;12.58;78.50;102033.66;5026252;28;20061;-65
2023/05/26 05:51:36;;;;;;;38.97;11.88;;;;;;;12.55;78.16;102029.56;4992916;28;20051;-64
2023/05/26 05:54:03;;;;;;;46.60;11.70;;;;;;;12.67;78.43;102029.13;4992946;28;20414;-63
2023/05/26 05:56:31;;;;;;;32.60;11.23;;;;;;;12.48;78.82;102035.44;4976365;28;20054;-63
2023/05/26 05:59:00;;;;;;;39.15;11.05;;;;;;;12.61;78.95;102030.31;5024802;28;20767;-64
2023/05/26 06:01:27;;;;;;;37.92;11.35;;;;;;;12.73;78.12;102037.06;4976553;28;20043;-64
2023/05/26 06:03:55;;;;;;;39.92;11.32;;;;;;;13.08;76.95;102033.03;4994457;28;20057;-63
2023/05/26 06:06:22;;;;;;;36.53;10.85;;;;;;;13.12;75.83;102034.91;4994429;28;20061;-64
2023/05/26 06:08:50;;;;;;;42.85;12.43;;;;;;;12.94;76.42;102043.97;5009388;28;20061;-64
2023/05/26 06:11:17;;;;;;;32.47;10.43;;;;;;;12.87;77.11;102043.53;5009129;28;20046;-63
2023/05/26 06:13:45;;;;;;;33.72;11.32;;;;;;;13.04;76.32;102037.53;5004937;28;20042;-64
2023/05/26 06:16:13;;;;;;;30.70;11.20;;;;;;;12.89;76.29;102037.69;5024814;28;20050;-66
2023/05/26 06:18:40;;;;;;;41.38;12.55;;;;;;;12.78;77.71;102038.97;4993778;28;20406;-64
2023/05/26 06:21:08;;;;;;;36.50;11.80;;;;;;;13.15;76.00;102044.53;4993123;28;20072;-63
2023/05/26 06:23:36;;;;;;;36.65;11.95;;;;;;;13.29;75.16;102039.91;5025155;28;20050;-63
2023/05/26 06:26:04;;;;;;;41.15;12.05;;;;;;;13.05;75.69;102050.22;4976126;28;20046;-64
2023/05/26 06:28:32;;;;;;;40.28;11.48;;;;;;;13.06;75.83;102052.69;5025567;28;20050;-63
2023/05/26 06:31:00;;;;;;;43.17;11.40;;;;;;;13.05;75.75;102047.47;4991826;28;20050;-63
2023/05/26 06:33:43;;;;;;;36.45;12.25;;;;;;;13.09;76.49;102048.53;4977696;28;20060;-63
2023/05/26 06:36:11;;;;;;;33.95;11.15;;;;;;;13.07;75.92;102046.06;4994812;28;20050;-65
2023/05/26 06:38:38;;;;;;;36.42;10.52;;;;;;;13.28;74.89;102057.66;4992402;28;20057;-64
2023/05/26 06:41:07;;;;;;;38.08;12.10;;;;;;;13.11;75.64;102047.09;4974826;28;20438;-62
2023/05/26 06:43:36;;;;;;;35.90;11.65;;;;;;;13.40;74.92;102046.97;4988169;28;20050;-63
2023/05/26 06:46:05;;;;;;;31.95;11.10;;;;;;;13.27;74.86;102042.16;4983813;28;20062;-64
2023/05/26 06:48:35;;;;;;;38.17;11.88;;;;;;;13.42;74.38;102044.72;5006475;28;20419;-65
2023/05/26 06:51:22;;;;;;;42.22;12.82;;;;;;;13.39;74.61;102042.53;4997626;28;20058;-64
2023/05/26 06:53:50;;;;;;;49.00;13.27;;;;;;;13.35;74.21;102044.28;4990678;28;20054;-65
2023/05/26 06:56:18;;;;;;;31.30;10.82;;;;;;;13.57;74.03;102048.06;5003583;28;20670;-65
2023/05/26 06:58:45;;;;;;;35.17;11.48;;;;;;;13.67;73.38;102047.06;4987988;28;20045;-66
2023/05/26 07:01:13;;;;;;;40.75;11.90;;;;;;;13.91;72.72;102047.78;4987605;28;20054;-68
2023/05/26 07:03:40;;;;;;;40.92;12.77;;;;;;;13.88;72.48;102042.84;4972448;28;20363;-67
2023/05/26 07:06:08;;;;;;;40.35;12.20;;;;;;;13.52;73.74;102050.09;4992399;28;20042;-66
2023/05/26 07:08:38;;;;;;;37.33;12.65;;;;;;;13.73;73.69;102051.41;5014621;28;20049;-67
2023/05/26 07:11:21;;;;;;;39.75;12.40;;;;;;;14.15;72.17;102028.22;5001297;28;20042;-67
2023/05/26 07:13:52;;;;;;;43.90;11.38;;;;;;;14.13;71.28;102030.47;4996789;28;20046;-67
2023/05/26 07:16:20;;;;;;;36.42;11.63;;;;;;;14.53;70.41;102038.06;4984675;28;20050;-68
2023/05/26 07:18:48;;;;;;;39.15;11.52;;;;;;;14.72;69.42;102033.22;4980429;28;20515;-67
2023/05/26 07:21:18;;;;;;;30.08;10.52;;;;;;;14.77;68.70;102027.56;4999015;28;20050;-68
2023/05/26 07:23:48;;;;;;;35.53;12.00;;;;;;;14.76;68.01;102042.56;5003968;28;20510;-68
2023/05/26 07:26:16;;;;;;;42.28;11.95;;;;;;;14.98;67.28;102039.03;4998853;28;20518;-68
2023/05/26 07:28:44;;;;;;;34.45;10.70;;;;;;;15.10;67.04;102031.81;5013788;28;20057;-67
2023/05/26 07:31:11;;;;;;;35.03;11.50;;;;;;;15.71;65.39;102036.78;4982349;28;20046;-67
2023/05/26 07:33:40;;;;;;;35.92;11.50;;;;;;;15.78;64.38;102024.09;5003375;28;20892;-67
2023/05/26 07:36:08;;;;;;;35.00;12.25;;;;;;;16.04;63.55;102027.03;5006692;28;20061;-67
2023/05/26 07:38:35;;;;;;;36.28;11.02;;;;;;;16.04;63.39;102034.56;5004803;28;20053;-66
2023/05/26 07:41:03;;;;;;;35.75;12.00;;;;;;;16.18;62.83;102032.53;4992106;28;20081;-66
2023/05/26 07:43:31;;;;;;;27.55;10.73;;;;;;;16.20;62.29;102027.44;5004088;28;20046;-67
2023/05/26 07:45:59;;;;;;;36.53;10.80;;;;;;;15.98;63.03;102025.53;4995279;28;20053;-65
2023/05/26 07:48:26;;;;;;;27.35;10.00;;;;;;;16.10;62.87;102033.28;4998918;28;20065;-64
2023/05/26 07:50:54;;;;;;;30.38;11.75;;;;;;;15.78;63.32;102028.81;4997436;28;20050;-65
2023/05/26 07:53:22;;;;;;;36.58;11.65;;;;;;;16.09;63.17;102024.09;5017901;28;20062;-65
2023/05/26 07:55:49;;;;;;;29.52;11.52;;;;;;;16.59;61.17;102031.09;5000893;28;20050;-65
2023/05/26 07:58:17;;;;;;;29.52;10.60;;;;;;;17.08;59.63;102021.56;4997484;28;20054;-65
2023/05/26 08:00:45;;;;;;;34.30;10.60;;;;;;;17.29;58.74;102024.53;4991621;28;20061;-65
2023/05/26 08:03:12;;;;;;;29.33;10.55;;;;;;;16.92;60.01;102025.13;4992550;28;20054;-65
2023/05/26 08:05:42;;;;;;;33.47;10.15;;;;;;;17.06;59.25;102023.03;4996313;28;21728;-65
2023/05/26 08:08:09;;;;;;;33.05;10.93;;;;;;;17.28;58.51;102020.91;5003542;28;20069;-65
2023/05/26 08:10:37;;;;;;;31.15;10.50;;;;;;;16.58;59.75;102021.09;5010440;28;20412;-65
2023/05/26 08:13:04;;;;;;;35.70;10.85;;;;;;;16.80;59.83;102026.59;5012781;28;20589;-64
2023/05/26 08:15:32;;;;;;;29.10;11.18;;;;;;;16.41;60.50;102022.97;5016530;28;20056;-64
2023/05/26 08:17:59;;;;;;;31.52;11.35;;;;;;;16.78;60.47;102030.81;5016424;28;20050;-64
2023/05/26 08:20:27;;;;;;;29.50;10.25;;;;;;;16.84;60.63;102026.75;5012583;28;20485;-65
2023/05/26 08:22:57;;;;;;;27.30;10.10;;;;;;;16.54;61.10;102022.91;4990155;28;20034;-64
2023/05/26 08:25:25;;;;;;;;;;;;;;;16.66;60.49;102028.66;4992950;28;20049;-63
2023/05/26 08:27:52;;;;;;;29.02;10.55;;;;;;;16.89;59.56;102023.81;5012346;28;19932;-64
2023/05/26 08:30:20;;;;;;;26.15;11.00;;;;;;;16.79;59.77;102024.09;5010698;28;20052;-64
2023/05/26 08:32:47;;;;;;;27.42;11.52;;;;;;;16.97;59.97;102024.97;4995165;28;20054;-64
2023/05/26 08:35:14;;;;;;;36.28;11.73;;;;;;;16.73;60.48;102030.97;5015724;28;20062;-64
2023/05/26 08:37:42;;;;;;;34.63;10.20;;;;;;;16.94;59.62;102020.06;5009880;28;20057;-65
2023/05/26 08:40:10;;;;;;;28.73;10.57;;;;;;;17.11;59.54;102017.28;5016489;28;20060;-65
2023/05/26 08:42:43;;;;;;;44.03;10.85;;;;;;;16.78;59.23;102016.91;5022572;28;20041;-67
2023/05/26 08:45:12;;;;;;;32.95;10.73;;;;;;;16.98;59.61;102021.06;4991744;28;20049;-65
2023/05/26 08:47:42;;;;;;;32.92;11.27;;;;;;;17.14;58.73;102022.22;5024766;28;20076;-66
2023/05/26 08:50:10;;;;;;;37.05;11.23;;;;;;;17.01;59.09;102015.66;5017581;28;20134;-67
2023/05/26 08:52:40;;;;;;;30.50;10.75;;;;;;;17.29;58.44;102010.59;5016569;28;20688;-65
2023/05/26 08:55:24;;;;;;;32.67;11.88;;;;;;;17.16;58.45;102011.56;4977660;28;20050;-67
2023/05/26 08:57:52;;;;;;;35.10;11.55;;;;;;;17.27;58.96;102013.72;5009190;28;20511;-65
2023/05/26 09:00:20;;;;;;;33.20;10.98;;;;;;;17.59;59.62;102004.88;4995735;28;20056;-66
2023/05/26 09:02:50;;;;;;;27.25;11.13;;;;;;;17.66;57.02;102009.97;4995907;28;20061;-64
2023/05/26 09:05:18;;;;;;;33.25;10.68;;;;;;;17.92;57.14;102005.16;5007375;28;20053;-65
2023/05/26 09:07:45;;;;;;;35.42;11.13;;;;;;;17.45;57.03;102011.75;5009935;28;20057;-65
2023/05/26 09:10:32;;;;;;;26.38;10.27;;;;;;;17.55;57.49;102008.66;5020715;28;20049;-63
2023/05/26 09:13:08;;;;;;;33.88;11.73;;;;;;;17.93;56.40;102007.63;5013574;28;20813;-63
2023/05/26 09:15:36;;;;;;;29.80;11.00;;;;;;;17.44;56.87;102001.75;5018679;28;20540;-63
2023/05/26 09:18:06;;;;;;;30.10;10.55;;;;;;;17.63;56.83;102019.81;4998768;28;20053;-63
2023/05/26 09:20:34;;;;;;;25.73;9.40;;;;;;;17.81;56.41;102006.66;5009664;28;20056;-63
2023/05/26 09:23:02;;;;;;;29.00;11.02;;;;;;;17.77;55.41;102025.19;5006982;28;20044;-62
2023/05/26 09:25:33;;;;;;;30.13;9.90;;;;;;;17.54;56.16;102018.97;4991408;28;20038;-62
2023/05/26 09:28:06;;;;;;;21.05;9.23;;;;;;;17.88;55.85;102016.16;5006116;28;20045;-62
2023/05/26 09:30:36;;;;;;;30.50;10.80;;;;;;;17.93;55.46;102015.16;4997136;28;20049;-63
2023/05/26 09:33:09;;;;;;;26.05;10.38;;;;;;;17.95;55.19;102013.69;5011085;28;20146;-63
2023/05/26 09:35:39;;;;;;;22.13;9.07;;;;;;;18.13;55.17;102008.88;5009430;28;20049;-65
2023/05/26 09:38:08;;;;;;;28.08;9.38;;;;;;;18.09;55.01;102018.22;5011082;28;20517;-62
2023/05/26 09:40:46;;;;;;;21.47;9.63;;;;;;;18.23;54.83;102010.47;5016244;28;20060;-62
2023/05/26 09:43:16;;;;;;;25.50;10.00;;;;;;;18.22;54.21;102018.03;4993404;28;20622;-63
2023/05/26 09:45:43;;;;;;;25.20;9.32;;;;;;;18.12;54.83;102012.00;4996151;28;20053;-63
2023/05/26 09:48:11;;;;;;;27.35;10.32;;;;;;;18.19;54.95;102026.25;5013413;28;20037;-63
2023/05/26 09:50:39;;;;;;;22.42;10.02;;;;;;;17.93;55.13;102010.41;5009971;28;20226;-63
2023/05/26 09:53:11;;;;;;;26.90;10.57;;;;;;;17.94;55.34;102014.00;5013146;28;20056;-63
2023/05/26 09:55:40;;;;;;;30.00;10.55;;;;;;;17.81;55.36;102017.81;4992998;28;20058;-63
2023/05/26 09:58:12;;;;;;;28.00;11.15;;;;;;;17.88;55.78;102005.00;5008964;28;20054;-64
2023/05/26 10:00:40;;;;;;;30.55;10.35;;;;;;;18.06;54.62;102011.38;5015397;28;20111;-62
2023/05/26 10:03:08;;;;;;;24.15;9.93;;;;;;;18.02;55.26;102003.97;4993480;28;20050;-62
2023/05/26 10:05:40;;;;;;;27.45;13.02;;;;;;;17.89;54.76;102017.78;5006287;28;20050;-63
2023/05/26 10:08:08;;;;;;;25.50;9.40;;;;;;;17.72;55.20;102019.78;5014713;28;20133;-64
2023/05/26 10:10:36;;;;;;;27.15;9.95;;;;;;;17.69;55.81;102015.72;5022231;28;20053;-63
2023/05/26 10:13:05;;;;;;;29.08;9.98;;;;;;;18.01;55.23;102011.53;4988504;28;20056;-65
2023/05/26 10:15:33;;;;;;;;;;;;;;;18.01;55.36;102010.72;5002226;28;20049;-65
2023/05/26 10:18:02;;;;;;;29.08;10.88;;;;;;;18.14;55.21;102009.69;5003441;28;19925;-65
2023/05/26 10:20:29;;;;;;;28.92;10.55;;;;;;;18.04;54.42;102012.84;5014520;28;20042;-64
2023/05/26 10:23:04;;;;;;;28.98;10.18;;;;;;;18.07;54.57;102006.59;5003620;28;20062;-64
2023/05/26 10:25:38;;;;;;;25.83;10.48;;;;;;;18.09;54.76;102007.91;5006727;28;20046;-64
2023/05/26 10:28:13;;;;;;;22.08;10.18;;;;;;;18.27;54.32;102009.47;5003572;28;20057;-63
2023/05/26 10:30:41;;;;;;;27.73;11.25;;;;;;;18.15;54.56;102008.56;5019794;28;20068;-65
2023/05/26 10:33:09;;;;;;;26.48;12.00;;;;;;;18.24;54.77;102001.78;5007632;28;20061;-63
2023/05/26 10:35:37;;;;;;;25.98;10.73;;;;;;;18.26;54.97;102004.22;5001692;28;20057;-65
2023/05/26 10:38:05;;;;;;;21.45;9.65;;;;;;;18.11;54.53;102004.78;4998007;28;20054;-65
2023/05/26 10:40:33;;;;;;;26.15;10.23;;;;;;;18.34;54.22;101995.81;5012681;28;20056;-65
2023/05/26 10:43:24;;;;;;;25.70;10.48;;;;;;;18.78;53.34;101986.09;5028196;28;20050;-65
2023/05/26 10:45:57;;;;;;;19.95;9.25;;;;;;;18.80;52.99;101979.03;5019863;28;20056;-63
2023/05/26 10:48:35;;;;;;;22.15;8.38;;;;;;;18.78;52.78;101994.47;5016400;28;20061;-67
2023/05/26 10:51:07;;;;;;;28.42;9.80;;;;;;;18.88;52.14;101989.31;5009818;28;20662;-66
2023/05/26 10:53:40;;;;;;;28.23;10.02;;;;;;;18.92;52.64;101979.13;5014097;28;20046;-64
2023/05/26 10:56:13;;;;;;;24.33;9.32;;;;;;;18.84;52.86;101977.22;5018068;28;20054;-65
2023/05/26 10:58:51;;;;;;;26.00;10.13;;;;;;;18.86;53.28;101982.47;5012910;28;20046;-65
2023/05/26 11:01:29;;;;;;;20.20;9.52;;;;;;;18.88;53.74;101983.75;5007455;28;20155;-65
2023/05/26 11:03:57;;;;;;;23.13;9.18;;;;;;;18.80;52.71;101978.22;5024687;28;20050;-65
2023/05/26 11:06:43;;;;;;;23.63;9.48;;;;;;;18.61;52.66;101975.06;5016645;28;20058;-63
2023/05/26 11:09:11;;;;;;;23.63;9.38;;;;;;;18.63;53.89;101983.91;5022050;28;20409;-64
2023/05/26 11:11:49;;;;;;;22.50;10.35;;;;;;;18.90;53.32;101980.59;5013977;28;20046;-64
2023/05/26 11:14:22;;;;;;;26.90;10.45;;;;;;;18.80;53.59;101979.03;5022828;28;20350;-64
2023/05/26 11:16:51;;;;;;;28.60;9.35;;;;;;;18.87;53.34;101973.75;5027672;28;20053;-64
2023/05/26 11:19:28;;;;;;;24.95;9.82;;;;;;;19.32;52.14;101976.69;5017147;28;20092;-64
2023/05/26 11:21:57;;;;;;;22.30;10.00;;;;;;;19.44;50.92;101960.00;5021979;28;20117;-65
2023/05/26 11:24:24;;;;;;;22.98;9.88;;;;;;;19.10;52.17;101968.66;5007218;28;20053;-66